Time;durP1;ratioP1;P1;durP2;ratioP2;P2;SDS_P1;SDS_P2;PMS_P1;PMS_P2;Temp;Humidity;BMP_temperature;BMP_pressure;BME280_temperature;BME280_humidity;BME280_pressure;Samples;Min_cycle;Max_cycle;Signal;HPM_P1;HPM_P2
2023/01/22 00:00:34;;;;;;;;;;;;;;;1.48;79.60;103405.50;5046240;28;19927;-43
2023/01/22 00:02:59;;;;;;;;;;;;;;;1.45;79.60;103404.28;5045660;28;19920;-47
2023/01/22 00:05:24;;;;;;;;;;;;;;;1.43;79.67;103406.66;5047998;28;19921;-46
2023/01/22 00:07:49;;;;;;;;;;;;;;;1.43;79.79;103411.72;5046104;28;19966;-48
2023/01/22 00:10:15;;;;;;;;;;;;;;;1.44;79.69;103412.63;5046663;28;19921;-46
2023/01/22 00:12:40;;;;;;;;;;;;;;;1.44;79.75;103413.53;5029157;28;19939;-47
2023/01/22 00:15:06;;;;;;;;;;;;;;;1.44;79.99;103416.06;5045150;28;20026;-45
2023/01/22 00:17:31;;;;;;;;;;;;;;;1.42;79.98;103417.53;5046120;28;20332;-51
2023/01/22 00:19:56;;;;;;;;;;;;;;;1.39;80.06;103414.66;5047611;28;19983;-47
2023/01/22 00:22:21;;;;;;;;;;;;;;;1.33;80.03;103411.47;5049300;28;19927;-48
2023/01/22 00:24:47;;;;;;;;;;;;;;;1.31;80.18;103416.41;5043250;28;19928;-43
2023/01/22 00:27:12;;;;;;;;;;;;;;;1.30;80.48;103413.72;5050849;28;19927;-47
2023/01/22 00:29:37;;;;;;;;;;;;;;;1.31;80.29;103405.38;5043094;28;19956;-46
2023/01/22 00:32:03;;;;;;;;;;;;;;;1.31;80.29;103402.84;5053572;28;19916;-48
2023/01/22 00:34:28;;;;;;;;;;;;;;;1.30;80.51;103404.47;5048736;28;20035;-44
2023/01/22 00:36:53;;;;;;;;;;;;;;;1.33;80.56;103392.13;5047814;28;20339;-43
2023/01/22 00:39:18;;;;;;;;;;;;;;;1.36;80.30;103401.69;5050020;28;19924;-48
2023/01/22 00:41:44;;;;;;;;;;;;;;;1.36;80.25;103393.19;5049949;28;19928;-44
2023/01/22 00:44:09;;;;;;;;;;;;;;;1.36;80.24;103401.69;5050967;28;19921;-46
2023/01/22 00:46:34;;;;;;;;;;;;;;;1.34;80.27;103393.03;5048390;28;19931;-46
2023/01/22 00:49:01;;;;;;;;;;;;;;;1.32;80.18;103399.56;5050355;28;19936;-46
2023/01/22 00:51:27;;;;;;;;;;;;;;;1.30;80.14;103391.78;5050255;28;19921;-47
2023/01/22 00:53:52;;;;;;;;;;;;;;;1.32;80.18;103397.91;5048392;28;19974;-46
2023/01/22 00:56:17;;;;;;;;;;;;;;;1.32;80.36;103397.03;5049674;28;19921;-50
2023/01/22 00:58:42;;;;;;;;;;;;;;;1.32;80.15;103389.41;5050675;28;19925;-50
2023/01/22 01:01:08;;;;;;;;;;;;;;;1.30;80.24;103386.72;5048270;28;19995;-50
2023/01/22 01:03:34;;;;;;;;;;;;;;;1.29;80.16;103384.03;5050138;28;20627;-48
2023/01/22 01:05:59;;;;;;;;;;;;;;;1.30;80.26;103385.81;5048362;28;20368;-48
2023/01/22 01:08:25;;;;;;;;;;;;;;;1.29;80.30;103378.97;5054475;28;19958;-47
2023/01/22 01:10:58;;;;;;;;;;;;;;;1.30;80.23;103373.16;5048954;28;20020;-49
2023/01/22 01:13:23;;;;;;;;;;;;;;;1.31;80.15;103380.00;5048427;28;20044;-48
2023/01/22 01:15:49;;;;;;;;;;;;;;;1.32;79.79;103374.19;5048682;28;20023;-44
2023/01/22 01:18:14;;;;;;;;;;;;;;;1.31;80.10;103372.41;5047090;28;19974;-50
2023/01/22 01:20:40;;;;;;;;;;;;;;;1.29;80.10;103368.81;5048976;28;20019;-45
2023/01/22 01:23:05;;;;;;;;;;;;;;;1.29;80.14;103367.19;5051940;28;19975;-48
2023/01/22 01:25:30;;;;;;;;;;;;;;;1.31;80.05;103364.81;5047940;28;20083;-49
2023/01/22 01:27:56;;;;;;;;;;;;;;;1.31;79.96;103378.38;5048515;28;19917;-48
2023/01/22 01:30:21;;;;;;;;;;;;;;;1.31;80.21;103374.94;5046502;28;19932;-47
2023/01/22 01:32:46;;;;;;;;;;;;;;;1.31;80.11;103369.88;5055234;28;19921;-47
2023/01/22 01:35:11;;;;;;;;;;;;;;;1.32;79.86;103371.66;5047864;28;19935;-49
2023/01/22 01:37:37;;;;;;;;;;;;;;;1.31;79.86;103369.88;5046639;28;19929;-43
2023/01/22 01:40:02;;;;;;;;;;;;;;;1.31;79.90;103362.28;5048285;28;19927;-44
2023/01/22 01:42:33;;;;;;;;;;;;;;;1.30;80.21;103363.91;5047696;28;19916;-48
2023/01/22 01:45:17;;;;;;;;;;;;;;;1.31;80.04;103362.28;5049472;28;19920;-48
2023/01/22 01:47:42;;;;;;;;;;;;;;;1.30;79.91;103352.88;5048562;28;19923;-48
2023/01/22 01:50:07;;;;;;;;;;;;;;;1.31;79.84;103357.19;5049122;28;19920;-43
2023/01/22 01:52:33;;;;;;;;;;;;;;;1.31;79.86;103349.59;5047069;28;20014;-47
2023/01/22 01:54:58;;;;;;;;;;;;;;;1.31;79.91;103342.88;5048614;28;19939;-51
2023/01/22 01:57:26;;;;;;;;;;;;;;;1.28;79.80;103336.63;5048546;28;19927;-47
2023/01/22 01:59:52;;;;;;;;;;;;;;;1.25;80.10;103328.69;5047194;28;20023;-49
2023/01/22 02:02:21;;;;;;;;;;;;;;;1.23;80.07;103331.06;5047856;28;19939;-48
2023/01/22 02:04:48;;;;;;;;;;;;;;;1.23;80.00;103337.78;5049641;28;19917;-47
2023/01/22 02:07:13;;;;;;;;;;;;;;;1.23;80.06;103332.69;5048419;28;19917;-48
2023/01/22 02:09:38;;;;;;;;;;;;;;;1.22;79.85;103326.75;5048507;28;19923;-50
2023/01/22 02:12:03;;;;;;;;;;;;;;;1.22;79.94;103334.34;5047226;28;20365;-46
2023/01/22 02:14:31;;;;;;;;;;;;;;;1.21;79.78;103324.00;5045649;28;19937;-50
2023/01/22 02:17:19;;;;;;;;;;;;;;;1.19;80.02;103316.25;5046194;28;19925;-46
2023/01/22 02:19:45;;;;;;;;;;;;;;;1.18;80.04;103321.19;5035401;28;20007;-45
2023/01/22 02:22:21;;;;;;;;;;;;;;;1.15;80.15;103315.78;5046722;28;20084;-48
2023/01/22 02:24:46;;;;;;;;;;;;;;;1.12;80.03;103323.97;5052213;28;20292;-46
2023/01/22 02:27:11;;;;;;;;;;;;;;;1.12;80.00;103323.06;5049713;28;19916;-46
2023/01/22 02:29:37;;;;;;;;;;;;;;;1.13;80.39;103325.75;5046102;28;19921;-41
2023/01/22 02:32:03;;;;;;;;;;;;;;;1.13;80.19;103324.84;5048286;28;19924;-49
2023/01/22 02:34:28;;;;;;;;;;;;;;;1.15;80.11;103321.72;5048669;28;19928;-49
2023/01/22 02:36:53;;;;;;;;;;;;;;;1.15;80.14;103320.84;5045396;28;19960;-50
2023/01/22 02:39:18;;;;;;;;;;;;;;;1.13;80.22;103319.78;5047898;28;19921;-48
2023/01/22 02:41:44;;;;;;;;;;;;;;;1.13;80.37;103314.72;5046233;28;19940;-46
2023/01/22 02:44:09;;;;;;;;;;;;;;;1.15;80.05;103323.38;5047266;28;19970;-44
2023/01/22 02:46:35;;;;;;;;;;;;;;;1.12;80.14;103321.44;5048730;28;19920;-49
2023/01/22 02:49:00;;;;;;;;;;;;;;;1.13;80.29;103324.84;5047712;28;19969;-51
2023/01/22 02:51:28;;;;;;;;;;;;;;;1.13;80.35;103319.78;5046307;28;19973;-49
2023/01/22 02:53:54;;;;;;;;;;;;;;;1.15;80.28;103320.84;5047533;28;19928;-48
2023/01/22 02:56:19;;;;;;;;;;;;;;;1.14;80.23;103321.59;5047464;28;20324;-49
2023/01/22 02:58:45;;;;;;;;;;;;;;;1.16;80.42;103322.66;5049131;28;19921;-48
2023/01/22 03:01:19;;;;;;;;;;;;;;;1.16;80.42;103331.16;5046360;28;20385;-47
2023/01/22 03:03:49;;;;;;;;;;;;;;;1.12;80.60;103318.91;5046301;28;19921;-48
2023/01/22 03:06:15;;;;;;;;;;;;;;;1.12;80.58;103318.00;5047002;28;19923;-48
2023/01/22 03:08:41;;;;;;;;;;;;;;;1.10;80.62;103325.44;5049002;28;19917;-48
2023/01/22 03:11:06;;;;;;;;;;;;;;;1.12;80.82;103323.06;5046708;28;19991;-47
2023/01/22 03:21:45;;;;;;;;;;;;;;;1.18;80.79;103323.72;5046618;28;19962;-47
2023/01/22 03:24:10;;;;;;;;;;;;;;;1.23;80.86;103318.38;5048037;28;20620;-47
2023/01/22 03:26:35;;;;;;;;;;;;;;;1.26;80.82;103308.56;5028603;28;19928;-47
2023/01/22 03:29:01;;;;;;;;;;;;;;;1.29;80.76;103318.13;5047160;28;19929;-43
2023/01/22 03:31:26;;;;;;;;;;;;;;;1.30;80.95;103317.38;5042751;28;19949;-48
2023/01/22 03:33:51;;;;;;;;;;;;;;;1.30;80.67;103322.47;5048510;28;19966;-46
2023/01/22 03:36:17;;;;;;;;;;;;;;;1.28;80.79;103313.81;5041801;28;20397;-48
2023/01/22 03:38:43;;;;;;;;;;;;;;;1.28;80.68;103316.34;5044529;28;19921;-49
2023/01/22 03:41:10;;;;;;;;;;;;;;;1.28;80.87;103311.28;5044460;28;20134;-46
2023/01/22 03:43:36;;;;;;;;;;;;;;;1.29;81.11;103300.38;5043354;28;19920;-46
2023/01/22 03:46:11;;;;;;;;;;;;;;;1.28;80.92;103296.06;5047178;28;19943;-47
2023/01/22 03:48:37;;;;;;;;;;;;;;;1.29;80.87;103302.94;5046690;28;19921;-50
2023/01/22 03:51:03;;;;;;;;;;;;;;;1.30;81.13;103295.47;5046967;28;19924;-44
2023/01/22 03:53:28;;;;;;;;;;;;;;;1.32;80.76;103293.97;5046566;28;20266;-49
2023/01/22 03:55:57;;;;;;;;;;;;;;;1.32;80.76;103290.56;5046211;28;19928;-50
2023/01/22 03:58:22;;;;;;;;;;;;;;;1.33;80.73;103283.13;5045603;28;20400;-50
2023/01/22 04:00:48;;;;;;;;;;;;;;;1.34;80.51;103284.94;5046921;28;19921;-47
2023/01/22 04:03:13;;;;;;;;;;;;;;;1.36;80.55;103294.31;5044871;28;19928;-47
2023/01/22 04:05:38;;;;;;;;;;;;;;;1.30;80.37;103300.53;5047684;28;19920;-50
2023/01/22 04:08:03;;;;;;;;;;;;;;;1.29;80.67;103308.88;5051267;28;19925;-47
2023/01/22 04:10:29;;;;;;;;;;;;;;;1.30;80.63;103300.53;5049958;28;19935;-47
2023/01/22 04:12:54;;;;;;;;;;;;;;;1.28;80.62;103306.19;5050661;28;19920;-51
2023/01/22 04:15:19;;;;;;;;;;;;;;;1.28;80.71;103298.59;5047990;28;19921;-46
2023/01/22 04:17:44;;;;;;;;;;;;;;;1.27;81.00;103295.13;5047852;28;20500;-47
2023/01/22 04:20:10;;;;;;;;;;;;;;;1.29;80.93;103291.16;5049666;28;19976;-45
2023/01/22 04:22:35;;;;;;;;;;;;;;;1.29;80.77;103285.19;5038808;28;19982;-46
2023/01/22 04:25:01;;;;;;;;;;;;;;;1.24;80.82;103276.19;5050076;28;20028;-44
2023/01/22 04:27:26;;;;;;;;;;;;;;;1.17;81.01;103286.44;5046279;28;19921;-48
2023/01/22 04:29:51;;;;;;;;;;;;;;;1.12;81.54;103297.72;5046413;28;19970;-49
2023/01/22 04:32:16;;;;;;;;;;;;;;;1.10;81.43;103294.16;5048256;28;19935;-48
2023/01/22 04:34:43;;;;;;;;;;;;;;;1.06;81.67;103295.44;5047498;28;19921;-49
2023/01/22 04:37:08;;;;;;;;;;;;;;;1.04;81.99;103290.22;5047557;28;19963;-47
2023/01/22 04:39:33;;;;;;;;;;;;;;;0.99;82.07;103283.78;5045480;28;20300;-47
2023/01/22 04:41:58;;;;;;;;;;;;;;;1.00;82.06;103285.56;5048537;28;20329;-45
2023/01/22 04:44:23;;;;;;;;;;;;;;;1.00;82.10;103282.13;5046518;28;19972;-48
2023/01/22 04:46:49;;;;;;;;;;;;;;;0.99;81.98;103287.94;5048326;28;19943;-49
2023/01/22 04:49:14;;;;;;;;;;;;;;;1.02;81.92;103285.72;5045804;28;20340;-48
2023/01/22 04:51:39;;;;;;;;;;;;;;;1.02;81.90;103286.63;5046908;28;20305;-45
2023/01/22 04:54:04;;;;;;;;;;;;;;;1.01;81.77;103281.41;5048065;28;20041;-49
2023/01/22 04:56:30;;;;;;;;;;;;;;;1.03;81.89;103272.31;5047434;28;20282;-49
2023/01/22 04:58:55;;;;;;;;;;;;;;;1.03;81.91;103280.84;5047048;28;20321;-50
2023/01/22 05:01:20;;;;;;;;;;;;;;;1.05;81.93;103276.81;5045631;28;20266;-47
2023/01/22 05:03:45;;;;;;;;;;;;;;;1.06;81.66;103281.13;5053001;28;20289;-47
2023/01/22 05:06:10;;;;;;;;;;;;;;;1.04;81.70;103281.72;5045388;28;20410;-44
2023/01/22 05:08:36;;;;;;;;;;;;;;;1.05;81.75;103289.47;5049033;28;20270;-49
2023/01/22 05:11:01;;;;;;;;;;;;;;;1.10;81.77;103279.84;5045741;28;19952;-48
2023/01/22 05:13:27;;;;;;;;;;;;;;;1.14;81.73;103283.56;5049650;28;19920;-48
2023/01/22 05:15:52;;;;;;;;;;;;;;;1.16;81.43;103279.59;5047636;28;19925;-50
2023/01/22 05:18:17;;;;;;;;;;;;;;;1.16;81.26;103274.50;5046716;28;19928;-49
2023/01/22 05:20:42;;;;;;;;;;;;;;;1.18;81.26;103270.50;5042919;28;20015;-48
2023/01/22 05:23:08;;;;;;;;;;;;;;;1.14;81.02;103278.50;5051392;28;19920;-49
2023/01/22 05:25:33;;;;;;;;;;;;;;;1.07;81.25;103284.56;5043467;28;19921;-51
2023/01/22 05:27:58;;;;;;;;;;;;;;;1.10;81.28;103284.91;5050818;28;19974;-49
2023/01/22 05:30:23;;;;;;;;;;;;;;;1.13;81.20;103296.97;5046036;28;19921;-48
2023/01/22 05:32:49;;;;;;;;;;;;;;;1.12;81.00;103288.50;5049103;28;19924;-48
2023/01/22 05:35:14;;;;;;;;;;;;;;;1.07;81.07;103297.25;5047044;28;19928;-46
2023/01/22 05:37:39;;;;;;;;;;;;;;;1.04;81.46;103296.94;5047101;28;20011;-48
2023/01/22 05:40:05;;;;;;;;;;;;;;;1.04;81.57;103295.28;5053552;28;19940;-49
2023/01/22 05:42:30;;;;;;;;;;;;;;;1.07;81.63;103299.78;5043253;28;20461;-49
2023/01/22 05:44:55;;;;;;;;;;;;;;;1.03;81.26;103305.25;5050605;28;19924;-49
2023/01/22 05:47:21;;;;;;;;;;;;;;;1.02;81.42;103300.91;5050038;28;20024;-50
2023/01/22 05:49:46;;;;;;;;;;;;;;;1.04;81.56;103304.53;5050736;28;19932;-50
2023/01/22 05:52:11;;;;;;;;;;;;;;;1.10;81.70;103309.34;5027494;28;20308;-46
2023/01/22 05:54:37;;;;;;;;;;;;;;;1.05;81.35;103312.28;5042874;28;20400;-47
2023/01/22 05:57:03;;;;;;;;;;;;;;;1.03;81.23;103316.31;5042859;28;19925;-49
2023/01/22 05:59:28;;;;;;;;;;;;;;;1.00;81.58;103310.91;5043533;28;19924;-41
2023/01/22 06:01:53;;;;;;;;;;;;;;;0.98;81.50;103320.00;5045341;28;19925;-48
2023/01/22 06:04:19;;;;;;;;;;;;;;;1.02;81.68;103317.00;5044731;28;20019;-50
2023/01/22 06:06:44;;;;;;;;;;;;;;;1.08;81.77;103317.66;5044833;28;20297;-46
2023/01/22 06:09:10;;;;;;;;;;;;;;;1.12;81.49;103312.94;5045257;28;20039;-47
2023/01/22 06:11:35;;;;;;;;;;;;;;;1.16;81.43;103312.53;5042900;28;19928;-41
2023/01/22 06:14:01;;;;;;;;;;;;;;;1.18;81.52;103308.50;5045116;28;20741;-49
2023/01/22 06:16:26;;;;;;;;;;;;;;;1.17;81.21;103306.72;5045327;28;20364;-45
2023/01/22 06:18:51;;;;;;;;;;;;;;;1.14;81.38;103314.88;5044597;28;19929;-48
2023/01/22 06:21:16;;;;;;;;;;;;;;;1.06;81.56;103311.53;5042944;28;19929;-45
2023/01/22 06:23:42;;;;;;;;;;;;;;;1.04;81.82;103309.59;5043163;28;19935;-47
2023/01/22 06:26:07;;;;;;;;;;;;;;;1.03;81.85;103318.84;5047148;28;20439;-48
2023/01/22 06:28:32;;;;;;;;;;;;;;;1.02;82.06;103314.47;5047816;28;19929;-44
2023/01/22 06:31:04;;;;;;;;;;;;;;;1.03;82.16;103320.44;5044504;28;19974;-52
2023/01/22 06:33:29;;;;;;;;;;;;;;;1.03;82.42;103321.38;5047658;28;19960;-48
2023/01/22 06:35:55;;;;;;;;;;;;;;;1.04;82.27;103310.50;5046646;28;20444;-49
2023/01/22 06:38:20;;;;;;;;;;;;;;;1.08;82.34;103317.66;5047804;28;20027;-48
2023/01/22 06:40:56;;;;;;;;;;;;;;;1.11;82.29;103318.75;5046257;28;19921;-46
2023/01/22 06:43:22;;;;;;;;;;;;;;;1.14;82.26;103317.41;5044134;28;19943;-48
2023/01/22 06:45:47;;;;;;;;;;;;;;;1.14;82.28;103307.28;5045634;28;19917;-48
2023/01/22 06:48:12;;;;;;;;;;;;;;;1.11;82.00;103311.16;5030097;28;19994;-41
2023/01/22 06:50:38;;;;;;;;;;;;;;;1.10;82.16;103320.38;5047941;28;19999;-48
2023/01/22 06:53:03;;;;;;;;;;;;;;;1.09;82.31;103328.69;5049344;28;19963;-51
2023/01/22 06:55:28;;;;;;;;;;;;;;;1.12;82.44;103333.19;5045795;28;19932;-44
2023/01/22 06:57:54;;;;;;;;;;;;;;;1.10;82.38;103325.44;5047112;28;19921;-46
2023/01/22 07:00:19;;;;;;;;;;;;;;;1.04;82.61;103322.28;5045854;28;19917;-49
2023/01/22 07:02:44;;;;;;;;;;;;;;;1.06;82.48;103323.31;5046152;28;19971;-45
2023/01/22 07:05:10;;;;;;;;;;;;;;;1.11;82.48;103318.75;5046937;28;19935;-48
2023/01/22 07:07:35;;;;;;;;;;;;;;;1.11;82.16;103322.16;5043670;28;20011;-44
2023/01/22 07:10:00;;;;;;;;;;;;;;;1.14;82.49;103331.72;5044288;28;20409;-47
2023/01/22 07:12:25;;;;;;;;;;;;;;;1.17;82.36;103332.94;5046668;28;19925;-45
2023/01/22 07:14:51;;;;;;;;;;;;;;;1.18;82.25;103336.38;5048157;28;19936;-50
2023/01/22 07:17:16;;;;;;;;;;;;;;;1.22;82.52;103335.97;5047335;28;20298;-49
2023/01/22 07:19:41;;;;;;;;;;;;;;;1.25;82.31;103329.56;5044406;28;20386;-49
2023/01/22 07:22:06;;;;;;;;;;;;;;;1.25;82.40;103316.91;5048367;28;19935;-46
2023/01/22 07:24:32;;;;;;;;;;;;;;;1.22;82.16;103321.66;5042409;28;19932;-47
2023/01/22 07:26:57;;;;;;;;;;;;;;;1.24;82.32;103329.44;5028575;28;19921;-51
2023/01/22 07:29:22;;;;;;;;;;;;;;;1.27;82.33;103327.19;5045524;28;19947;-46
2023/01/22 07:31:47;;;;;;;;;;;;;;;1.29;82.42;103330.81;5044898;28;19928;-49
2023/01/22 07:34:13;;;;;;;;;;;;;;;1.29;82.19;103325.75;5046209;28;19921;-48
2023/01/22 07:36:38;;;;;;;;;;;;;;;1.31;82.16;103326.78;5046725;28;19932;-48
2023/01/22 07:39:04;;;;;;;;;;;;;;;1.32;82.28;103331.09;5046253;28;19927;-48
2023/01/22 07:41:29;;;;;;;;;;;;;;;1.35;82.16;103328.91;5044550;28;19925;-50
2023/01/22 07:43:56;;;;;;;;;;;;;;;1.31;81.88;103334.38;5046099;28;19928;-47
2023/01/22 07:46:21;;;;;;;;;;;;;;;1.31;82.17;103334.38;5046820;28;19927;-48
2023/01/22 07:48:47;;;;;;;;;;;;;;;1.30;82.07;103330.06;5045659;28;20548;-48
2023/01/22 07:51:12;;;;;;;;;;;;;;;1.31;82.43;103331.84;5048912;28;19916;-43
2023/01/22 07:53:38;;;;;;;;;;;;;;;1.32;82.02;103337.06;5048987;28;19923;-47
2023/01/22 07:56:04;;;;;;;;;;;;;;;1.34;82.33;103333.09;5048031;28;19932;-48
2023/01/22 07:58:30;;;;;;;;;;;;;;;1.37;82.46;103340.09;5049196;28;19938;-49
2023/01/22 08:00:55;;;;;;;;;;;;;;;1.40;82.41;103335.38;5047063;28;19936;-46
2023/01/22 08:03:20;;;;;;;;;;;;;;;1.42;82.37;103333.88;5048683;28;19970;-50
2023/01/22 08:05:45;;;;;;;;;;;;;;;1.43;82.36;103337.31;5048687;28;20448;-42
2023/01/22 08:08:13;;;;;;;;;;;;;;;1.44;82.22;103334.94;5045619;28;20506;-45
2023/01/22 08:10:39;;;;;;;;;;;;;;;1.46;82.39;103335.09;5043551;28;19913;-48
2023/01/22 08:13:04;;;;;;;;;;;;;;;1.47;82.29;103340.34;5035808;28;19916;-46
2023/01/22 08:15:30;;;;;;;;;;;;;;;1.49;82.08;103343.03;5048842;28;20389;-49
2023/01/22 08:17:55;;;;;;;;;;;;;;;1.45;82.20;103336.72;5048218;28;19912;-47
2023/01/22 08:20:21;;;;;;;;;;;;;;;1.45;82.35;103341.78;5047060;28;19933;-50
2023/01/22 08:22:47;;;;;;;;;;;;;;;1.47;82.34;103339.44;5047597;28;19928;-50
2023/01/22 08:25:12;;;;;;;;;;;;;;;1.48;82.51;103347.19;5048190;28;19940;-42
2023/01/22 08:27:37;;;;;;;;;;;;;;;1.50;82.45;103350.78;5048536;28;19916;-48
2023/01/22 08:30:03;;;;;;;;;;;;;;;1.49;82.66;103348.97;5048019;28;20384;-49
2023/01/22 08:32:28;;;;;;;;;;;;;;;1.49;82.46;103353.16;5045124;28;19928;-47
2023/01/22 08:34:53;;;;;;;;;;;;;;;1.50;82.46;103358.38;5048791;28;19921;-50
2023/01/22 08:37:19;;;;;;;;;;;;;;;1.48;82.57;103357.34;5047779;28;19921;-48
2023/01/22 08:39:45;;;;;;;;;;;;;;;1.47;82.43;103359.72;5046127;28;20399;-49
2023/01/22 08:42:10;;;;;;;;;;;;;;;1.48;82.69;103366.59;5048683;28;19920;-49
2023/01/22 08:44:35;;;;;;;;;;;;;;;1.51;82.71;103361.81;5047144;28;19932;-50
2023/01/22 08:47:01;;;;;;;;;;;;;;;1.54;82.61;103359.63;5047016;28;19964;-49
2023/01/22 08:49:26;;;;;;;;;;;;;;;1.53;82.72;103351.09;5041830;28;19924;-51
2023/01/22 08:51:52;;;;;;;;;;;;;;;1.57;82.57;103353.19;5047379;28;20006;-48
2023/01/22 08:54:17;;;;;;;;;;;;;;;1.57;82.39;103363.34;5048587;28;19929;-47
2023/01/22 08:56:42;;;;;;;;;;;;;;;1.60;82.68;103356.06;5051401;28;19943;-49
2023/01/22 08:59:08;;;;;;;;;;;;;;;1.64;82.34;103354.75;5052571;28;19921;-52
2023/01/22 09:01:33;;;;;;;;;;;;;;;1.64;82.41;103359.84;5050145;28;19921;-46
2023/01/22 09:03:58;;;;;;;;;;;;;;;1.66;82.33;103352.38;5049065;28;20361;-47
2023/01/22 09:06:25;;;;;;;;;;;;;;;1.68;82.32;103353.44;5051713;28;19913;-48
2023/01/22 09:08:51;;;;;;;;;;;;;;;1.69;82.20;103361.19;5039706;28;20353;-49
2023/01/22 09:11:16;;;;;;;;;;;;;;;1.69;82.27;103361.19;5050299;28;19935;-50
2023/01/22 09:13:41;;;;;;;;;;;;;;;1.70;82.19;103359.53;5050329;28;19936;-48
2023/01/22 09:16:09;;;;;;;;;;;;;;;1.69;82.47;103361.19;5051469;28;19935;-51
2023/01/22 09:18:35;;;;;;;;;;;;;;;1.71;82.26;103362.25;5049353;28;19921;-50
2023/01/22 09:21:00;;;;;;;;;;;;;;;1.67;81.98;103360.13;5050353;28;20106;-47
2023/01/22 09:23:25;;;;;;;;;;;;;;;1.61;82.22;103364.56;5048546;28;19920;-46
2023/01/22 09:25:50;;;;;;;;;;;;;;;1.61;82.51;103359.50;5050425;28;19935;-49
2023/01/22 09:28:16;;;;;;;;;;;;;;;1.64;82.42;103363.97;5050957;28;20028;-53
2023/01/22 09:30:42;;;;;;;;;;;;;;;1.61;82.23;103362.94;5048299;28;20429;-48
2023/01/22 09:33:07;;;;;;;;;;;;;;;1.59;82.35;103366.97;5049527;28;20029;-51
2023/01/22 09:35:33;;;;;;;;;;;;;;;1.62;82.57;103366.38;5047950;28;19925;-48
2023/01/22 09:37:58;;;;;;;;;;;;;;;1.59;82.27;103361.88;5049002;28;19952;-47
2023/01/22 09:40:25;;;;;;;;;;;;;;;1.65;82.40;103366.69;5049019;28;19967;-49
2023/01/22 09:42:51;;;;;;;;;;;;;;;1.67;82.39;103367.75;5049889;28;19964;-45
2023/01/22 09:45:18;;;;;;;;;;;;;;;1.69;82.39;103366.25;5047013;28;19940;-48
2023/01/22 09:47:49;;;;;;;;;;;;;;;1.70;82.63;103375.69;5049389;28;19916;-47
2023/01/22 09:50:19;;;;;;;;;;;;;;;1.74;82.41;103376.88;5050848;28;19925;-50
2023/01/22 09:52:44;;;;;;;;;;;;;;;1.76;82.23;103380.47;5050683;28;19917;-45
2023/01/22 09:55:17;;;;;;;;;;;;;;;1.77;82.52;103378.13;5045287;28;20020;-45
2023/01/22 09:57:45;;;;;;;;;;;;;;;1.82;82.46;103382.03;5044489;28;20714;-45
2023/01/22 10:00:14;;;;;;;;;;;;;;;1.85;82.41;103379.78;5045838;28;20404;-44
2023/01/22 10:02:43;;;;;;;;;;;;;;;1.88;82.00;103386.81;5047771;28;19916;-42
2023/01/22 10:05:29;;;;;;;;;;;;;;;1.92;82.13;103380.44;5043734;28;19920;-47
2023/01/22 10:08:08;;;;;;;;;;;;;;;1.92;81.97;103382.97;5046402;28;19921;-47
2023/01/22 10:10:34;;;;;;;;;;;;;;;1.95;82.21;103383.28;5045372;28;19923;-48
2023/01/22 10:13:19;;;;;;;;;;;;;;;1.98;82.13;103379.41;5050302;28;19921;-46
2023/01/22 10:15:45;;;;;;;;;;;;;;;1.98;81.73;103384.50;5049816;28;19921;-51
2023/01/22 10:18:26;;;;;;;;;;;;;;;1.96;81.87;103387.63;5048348;28;19959;-47
2023/01/22 10:20:51;;;;;;;;;;;;;;;1.98;82.24;103391.22;5049417;28;20016;-51
2023/01/22 10:23:21;;;;;;;;;;;;;;;2.00;82.06;103383.03;5048356;28;21289;-47
2023/01/22 10:25:46;;;;;;;;;;;;;;;1.98;81.66;103389.56;5049801;28;19917;-43
2023/01/22 10:28:12;;;;;;;;;;;;;;;1.96;81.97;103385.97;5050065;28;19917;-44
2023/01/22 10:30:48;;;;;;;;;;;;;;;1.98;82.20;103391.22;5049355;28;19916;-48
2023/01/22 10:33:19;;;;;;;;;;;;;;;2.03;82.24;103377.34;5049138;28;19917;-44
2023/01/22 10:35:45;;;;;;;;;;;;;;;2.07;82.12;103375.31;5052403;28;19916;-46
2023/01/22 10:38:25;;;;;;;;;;;;;;;2.08;81.88;103377.09;5050454;28;19966;-47
2023/01/22 10:40:54;;;;;;;;;;;;;;;2.09;81.98;103377.97;5049420;28;19922;-47
2023/01/22 10:43:19;;;;;;;;;;;;;;;2.09;81.78;103380.53;5044477;28;19996;-49
2023/01/22 10:45:52;;;;;;;;;;;;;;;2.09;82.06;103381.41;5048001;28;20028;-48
2023/01/22 10:48:18;;;;;;;;;;;;;;;2.10;82.14;103379.78;5048510;28;20046;-48
2023/01/22 10:50:44;;;;;;;;;;;;;;;2.09;81.89;103383.97;5047560;28;20030;-46
2023/01/22 10:53:25;;;;;;;;;;;;;;;2.11;82.07;103389.19;5029020;28;19940;-45
2023/01/22 10:55:52;;;;;;;;;;;;;;;2.12;82.11;103385.91;5047423;28;19927;-48
2023/01/22 10:58:20;;;;;;;;;;;;;;;2.13;82.03;103393.69;5047688;28;20259;-49
2023/01/22 11:00:54;;;;;;;;;;;;;;;2.16;82.00;103393.09;5046042;28;19921;-49
2023/01/22 11:03:20;;;;;;;;;;;;;;;2.15;82.03;103384.59;5045281;28;20003;-46
2023/01/22 11:05:46;;;;;;;;;;;;;;;2.16;82.07;103388.00;5045207;28;19916;-43
2023/01/22 11:08:14;;;;;;;;;;;;;;;2.19;81.98;103387.44;5046602;28;19970;-46
2023/01/22 11:10:48;;;;;;;;;;;;;;;2.19;81.90;103380.72;5048363;28;20282;-43
2023/01/22 11:13:20;;;;;;;;;;;;;;;2.22;81.84;103375.06;5045688;28;19921;-46
2023/01/22 11:15:46;;;;;;;;;;;;;;;2.21;81.78;103374.16;5045865;28;19924;-46
2023/01/22 11:18:17;;;;;;;;;;;;;;;2.21;81.96;103369.06;5046196;28;20759;-46
2023/01/22 11:20:45;;;;;;;;;;;;;;;2.23;82.13;103356.53;5046002;28;19955;-55
2023/01/22 11:23:16;;;;;;;;;;;;;;;2.26;81.94;103357.75;5048331;28;19916;-48
2023/01/22 11:25:51;;;;;;;;;;;;;;;2.27;81.77;103358.66;5045827;28;20440;-49
2023/01/22 11:28:22;;;;;;;;;;;;;;;2.27;82.01;103356.13;5029800;28;19924;-51
2023/01/22 11:31:03;;;;;;;;;;;;;;;2.29;81.95;103354.63;5045762;28;19917;-48
2023/01/22 11:33:28;;;;;;;;;;;;;;;2.32;81.80;103350.75;5040950;28;19928;-47
2023/01/22 11:35:58;;;;;;;;;;;;;;;2.33;81.71;103347.47;5045982;28;19921;-46
2023/01/22 11:38:45;;;;;;;;;;;;;;;2.35;82.15;103351.06;5044506;28;19963;-46
2023/01/22 11:41:16;;;;;;;;;;;;;;;2.35;82.11;103345.06;5046630;28;20006;-49
2023/01/22 11:44:00;;;;;;;;;;;;;;;2.36;82.21;103331.63;5044825;28;20149;-46
2023/01/22 11:46:49;;;;;;;;;;;;;;;2.38;81.87;103335.25;5044357;28;20142;-48
2023/01/22 11:49:37;;;;;;;;;;;;;;;2.39;82.34;103335.38;5019533;28;19920;-48
2023/01/22 11:52:17;;;;;;;;;;;;;;;2.44;81.87;103337.50;5036702;28;19920;-49
2023/01/22 11:54:56;;;;;;;;;;;;;;;2.41;81.64;103333.91;5045597;28;20568;-48
2023/01/22 11:57:42;;;;;;;;;;;;;;;2.37;81.90;103329.28;5042124;28;19921;-46
2023/01/22 12:00:28;;;;;;;;;;;;;;;2.38;82.19;103332.72;5043480;28;19917;-50
2023/01/22 12:02:59;;;;;;;;;;;;;;;2.40;82.25;103329.56;5044324;28;20305;-50
2023/01/22 12:05:35;;;;;;;;;;;;;;;2.46;82.38;103316.59;5045272;28;20427;-48
2023/01/22 12:08:11;;;;;;;;;;;;;;;2.46;81.79;103319.13;5045272;28;19967;-43
2023/01/22 12:10:43;;;;;;;;;;;;;;;2.43;82.20;103321.38;5043225;28;19928;-48
2023/01/22 12:13:32;;;;;;;;;;;;;;;2.42;82.22;103315.38;5044747;28;19952;-47
2023/01/22 12:16:13;;;;;;;;;;;;;;;2.47;82.36;103315.84;5044519;28;19955;-47
2023/01/22 12:18:47;;;;;;;;;;;;;;;2.50;82.37;103310.19;5043362;28;19927;-50
2023/01/22 12:21:27;;;;;;;;;;;;;;;2.52;82.34;103314.66;5045286;28;19927;-50
2023/01/22 12:23:58;;;;;;;;;;;;;;;2.56;82.28;103308.25;5044383;28;19931;-45
2023/01/22 12:26:29;;;;;;;;;;;;;;;2.55;81.82;103316.59;5040678;28;19921;-49
2023/01/22 12:29:00;;;;;;;;;;;;;;;2.55;82.01;103317.50;5048424;28;19940;-46
2023/01/22 12:31:32;;;;;;;;;;;;;;;2.56;82.03;103313.34;5050270;28;19917;-48
2023/01/22 12:34:00;;;;;;;;;;;;;;;2.59;82.06;103311.06;5050654;28;19921;-46
2023/01/22 12:36:26;;;;;;;;;;;;;;;2.61;82.14;103317.22;5046717;28;20397;-47
2023/01/22 12:39:10;;;;;;;;;;;;;;;2.58;81.63;103317.81;5048569;28;19960;-46
2023/01/22 12:41:35;;;;;;;;;;;;;;;2.53;82.15;103310.47;5048434;28;19943;-45
2023/01/22 12:44:19;;;;;;;;;;;;;;;2.53;82.30;103316.44;5048218;28;19920;-49
2023/01/22 12:46:52;;;;;;;;;;;;;;;2.52;82.12;103324.81;5049249;28;20344;-49
2023/01/22 12:49:19;;;;;;;;;;;;;;;2.52;82.41;103322.28;5045122;28;20055;-46
2023/01/22 12:51:46;;;;;;;;;;;;;;;2.53;82.24;103331.69;5048483;28;20067;-42
2023/01/22 12:54:17;;;;;;;;;;;;;;;2.52;82.07;103332.44;5048539;28;21452;-49
2023/01/22 12:56:42;;;;;;;;;;;;;;;2.51;82.03;103332.28;5042788;28;19928;-47